createdAt,value
2022-11-09T00:00:52.773Z,0.50
2022-11-09T00:03:20.950Z,0.70
2022-11-09T00:05:56.679Z,0.50
2022-11-09T00:08:24.391Z,0.70
2022-11-09T00:10:52.090Z,0.85
2022-11-09T00:13:21.866Z,0.47
2022-11-09T00:15:49.882Z,0.43
2022-11-09T00:18:17.608Z,0.50
2022-11-09T00:20:47.915Z,0.68
2022-11-09T00:23:16.337Z,0.57
2022-11-09T00:25:44.358Z,0.52
2022-11-09T00:28:12.204Z,0.85
2022-11-09T00:30:42.265Z,0.60
2022-11-09T00:33:11.039Z,0.30
2022-11-09T00:35:39.479Z,0.93
2022-11-09T00:38:07.207Z,0.65
2022-11-09T00:40:35.005Z,0.93
2022-11-09T00:43:02.734Z,0.45
2022-11-09T00:45:30.423Z,0.70
2022-11-09T00:47:59.471Z,1.00
2022-11-09T00:50:28.552Z,0.57
2022-11-09T00:52:56.378Z,0.45
2022-11-09T00:55:24.358Z,0.35
2022-11-09T00:57:53.068Z,1.35
2022-11-09T01:00:23.391Z,0.55
2022-11-09T01:02:51.995Z,0.70
2022-11-09T01:05:21.114Z,0.88
2022-11-09T01:07:48.868Z,0.45
2022-11-09T01:10:16.654Z,0.70
2022-11-09T01:12:44.368Z,0.57
2022-11-09T01:15:12.079Z,0.52
2022-11-09T01:17:39.780Z,0.65
2022-11-09T01:20:09.176Z,0.95
2022-11-09T01:22:38.214Z,0.80
2022-11-09T01:25:07.031Z,0.82
2022-11-09T01:27:35.439Z,0.55
2022-11-09T01:30:03.226Z,0.70
2022-11-09T01:32:33.397Z,0.85
2022-11-09T01:35:01.111Z,0.57
2022-11-09T01:37:28.864Z,0.70
2022-11-09T01:39:57.870Z,0.70
2022-11-09T01:42:26.938Z,1.38
2022-11-09T01:45:23.837Z,0.57
2022-11-09T01:48:03.537Z,0.80
2022-11-09T01:50:41.351Z,0.60
2022-11-09T01:53:17.525Z,0.80
2022-11-09T01:55:52.824Z,0.68
2022-11-09T01:58:29.109Z,1.00
2022-11-09T02:01:00.570Z,0.57
2022-11-09T02:03:36.540Z,0.50
2022-11-09T02:06:11.085Z,0.52
2022-11-09T02:08:40.227Z,0.52
2022-11-09T02:11:12.703Z,0.90
2022-11-09T02:13:46.022Z,0.82
2022-11-09T02:16:15.686Z,0.55
2022-11-09T02:18:52.860Z,0.63
2022-11-09T02:21:24.642Z,1.67
2022-11-09T02:23:53.006Z,1.77
2022-11-09T02:26:33.208Z,1.05
2022-11-09T02:29:05.089Z,1.40
2022-11-09T02:31:43.069Z,1.15
2022-11-09T02:34:16.284Z,1.08
2022-11-09T02:36:45.585Z,1.25
2022-11-09T02:39:18.733Z,1.15
2022-11-09T02:41:54.422Z,1.48
2022-11-09T02:44:23.202Z,1.40
2022-11-09T02:46:50.988Z,1.38
2022-11-09T02:49:18.736Z,1.42
2022-11-09T02:51:48.011Z,1.08
2022-11-09T02:54:15.675Z,1.48
2022-11-09T02:56:43.404Z,1.95
2022-11-09T02:59:11.144Z,1.73
2022-11-09T03:01:38.926Z,1.70
2022-11-09T03:04:06.924Z,1.13
2022-11-09T03:06:37.532Z,1.25
2022-11-09T03:09:10.134Z,1.08
2022-11-09T03:11:38.859Z,0.98
2022-11-09T03:14:06.986Z,1.05
2022-11-09T03:16:34.695Z,1.50
2022-11-09T03:19:03.027Z,1.02
2022-11-09T03:21:31.157Z,0.90
2022-11-09T03:23:59.054Z,1.08
2022-11-09T03:26:28.587Z,1.23
2022-11-09T03:28:56.305Z,1.13
2022-11-09T03:31:24.073Z,1.45
2022-11-09T03:33:52.333Z,0.90
2022-11-09T03:36:20.057Z,1.27
2022-11-09T03:38:47.985Z,1.20
2022-11-09T03:41:15.774Z,0.52
2022-11-09T03:43:44.788Z,1.38
2022-11-09T03:46:12.466Z,1.40
2022-11-09T03:48:40.155Z,1.02
2022-11-09T03:51:07.845Z,0.95
2022-11-09T03:53:36.149Z,0.93
2022-11-09T03:56:04.079Z,1.38
2022-11-09T03:58:31.818Z,1.02
2022-11-09T04:01:00.937Z,0.63
2022-11-09T04:03:28.668Z,0.70
2022-11-09T04:05:58.714Z,1.65
2022-11-09T04:08:26.571Z,1.50
2022-11-09T04:10:54.342Z,1.17
2022-11-09T04:13:22.433Z,1.38
2022-11-09T04:15:50.332Z,0.90
2022-11-09T04:18:19.417Z,1.48
2022-11-09T04:20:47.227Z,1.65
2022-11-09T04:23:15.154Z,1.83
2022-11-09T04:25:43.476Z,1.33
2022-11-09T04:28:13.183Z,1.40
2022-11-09T04:30:41.057Z,1.27
2022-11-09T04:33:10.661Z,2.05
2022-11-09T04:35:39.711Z,1.50
2022-11-09T04:38:11.539Z,1.77
2022-11-09T04:40:39.856Z,1.17
2022-11-09T04:43:13.379Z,1.30
2022-11-09T04:45:41.531Z,1.77
2022-11-09T04:48:11.673Z,1.75
2022-11-09T04:50:40.973Z,1.70
2022-11-09T04:53:11.774Z,1.38
2022-11-09T04:55:41.425Z,1.80
2022-11-09T04:58:10.043Z,1.38
2022-11-09T05:00:38.340Z,1.25
2022-11-09T05:03:07.835Z,1.15
2022-11-09T05:05:37.346Z,1.45
2022-11-09T05:08:07.537Z,1.50
2022-11-09T05:10:36.206Z,1.25
2022-11-09T05:13:06.849Z,1.70
2022-11-09T05:15:36.900Z,1.15
2022-11-09T05:18:06.609Z,1.70
2022-11-09T05:20:36.177Z,1.30
2022-11-09T05:23:22.218Z,1.27
2022-11-09T05:25:51.711Z,2.55
2022-11-09T05:28:19.428Z,1.83
2022-11-09T05:30:47.129Z,1.67
2022-11-09T05:33:17.242Z,1.70
2022-11-09T05:35:45.164Z,1.20
2022-11-09T05:38:12.912Z,1.98
2022-11-09T05:40:40.635Z,1.35
2022-11-09T05:43:09.683Z,1.60
2022-11-09T05:45:44.683Z,1.55
2022-11-09T05:48:14.582Z,1.42
2022-11-09T05:50:43.131Z,1.60
2022-11-09T05:53:12.672Z,1.88
2022-11-09T05:55:41.326Z,1.52
2022-11-09T05:58:11.254Z,1.55
2022-11-09T06:00:39.156Z,1.65
2022-11-09T06:03:09.716Z,1.40
2022-11-09T06:05:41.070Z,1.60
2022-11-09T06:08:12.863Z,1.30
2022-11-09T06:10:41.097Z,1.35
2022-11-09T06:13:11.039Z,1.58
2022-11-09T06:15:38.877Z,1.42
2022-11-09T06:18:06.677Z,2.05
2022-11-09T06:20:34.442Z,1.58
2022-11-09T06:23:04.446Z,1.63
2022-11-09T06:25:33.772Z,2.33
2022-11-09T06:28:02.226Z,1.42
2022-11-09T06:30:31.519Z,1.85
2022-11-09T06:33:00.880Z,1.67
2022-11-09T06:35:29.055Z,1.38
2022-11-09T06:37:58.505Z,1.75
2022-11-09T06:40:27.253Z,1.63
2022-11-09T06:42:58.894Z,1.92
2022-11-09T06:45:29.142Z,1.80
2022-11-09T06:47:59.476Z,1.42
2022-11-09T06:50:30.368Z,1.83
2022-11-09T06:52:59.520Z,1.70
2022-11-09T06:55:28.313Z,1.92
2022-11-09T06:57:57.264Z,2.33
2022-11-09T07:00:27.760Z,2.13
2022-11-09T07:02:55.604Z,1.75
2022-11-09T07:05:24.823Z,2.10
2022-11-09T07:07:52.716Z,1.30
2022-11-09T07:10:20.932Z,1.30
2022-11-09T07:12:49.308Z,1.55
2022-11-09T07:15:18.323Z,1.13
2022-11-09T07:17:46.111Z,1.27
2022-11-09T07:20:14.996Z,1.40
2022-11-09T07:22:44.291Z,1.27
2022-11-09T07:25:13.590Z,1.80
2022-11-09T07:27:41.338Z,1.27
2022-11-09T07:30:10.330Z,1.17
2022-11-09T07:33:07.585Z,1.45
2022-11-09T07:35:28.298Z,1.27
2022-11-09T07:38:01.282Z,1.15
2022-11-09T07:40:29.513Z,1.83
2022-11-09T07:42:59.540Z,1.33
2022-11-09T07:45:27.457Z,1.55
2022-11-09T07:47:57.605Z,1.60
2022-11-09T07:50:25.775Z,1.15
2022-11-09T07:52:53.661Z,1.45
2022-11-09T07:55:23.577Z,1.60
2022-11-09T07:57:56.827Z,1.30
2022-11-09T08:00:26.272Z,1.25
2022-11-09T08:02:54.168Z,1.20
2022-11-09T08:05:21.938Z,1.00
2022-11-09T08:07:49.705Z,1.38
2022-11-09T08:10:17.511Z,0.93
2022-11-09T08:12:47.685Z,1.25
2022-11-09T08:15:15.923Z,1.23
2022-11-09T08:17:43.643Z,0.88
2022-11-09T08:20:12.091Z,0.95
2022-11-09T08:22:42.870Z,0.85
2022-11-09T08:25:11.691Z,1.20
2022-11-09T08:27:40.959Z,1.25
2022-11-09T08:30:14.839Z,1.05
2022-11-09T08:32:44.034Z,0.63
2022-11-09T08:35:17.511Z,1.25
2022-11-09T08:37:46.700Z,0.70
2022-11-09T08:40:17.569Z,0.98
2022-11-09T08:42:45.747Z,1.40
2022-11-09T08:45:15.760Z,0.77
2022-11-09T08:47:44.281Z,1.10
2022-11-09T08:50:14.726Z,0.85
2022-11-09T08:52:42.530Z,0.80
2022-11-09T08:55:11.033Z,1.05
2022-11-09T08:57:38.809Z,1.02
2022-11-09T09:00:08.609Z,1.13
2022-11-09T09:02:38.960Z,1.23
2022-11-09T09:05:07.283Z,0.70
2022-11-09T09:07:35.420Z,0.95
2022-11-09T09:10:03.318Z,0.50
2022-11-09T09:12:31.358Z,0.82
2022-11-09T09:14:59.293Z,0.70
2022-11-09T09:17:27.983Z,1.10
2022-11-09T09:19:57.040Z,1.08
2022-11-09T09:22:24.922Z,0.80
2022-11-09T09:24:52.644Z,0.82
2022-11-09T09:27:20.355Z,1.40
2022-11-09T09:29:48.112Z,0.75
2022-11-09T09:32:15.848Z,0.68
2022-11-09T09:34:43.600Z,1.20
2022-11-09T09:37:12.918Z,0.82
2022-11-09T09:39:40.754Z,0.57
2022-11-09T09:42:17.089Z,0.40
2022-11-09T09:44:53.917Z,0.70
2022-11-09T09:47:31.858Z,0.77
2022-11-09T09:50:05.357Z,0.82
2022-11-09T09:52:42.055Z,1.00
2022-11-09T09:55:25.433Z,1.10
2022-11-09T09:57:57.930Z,0.80
2022-11-09T10:00:28.771Z,1.00
2022-11-09T10:02:56.905Z,0.82
2022-11-09T10:05:46.476Z,0.52
2022-11-09T10:08:32.746Z,0.43
2022-11-09T10:11:21.279Z,0.70
2022-11-09T10:14:29.228Z,0.68
2022-11-09T10:17:13.142Z,0.68
2022-11-09T10:20:01.011Z,0.65
2022-11-09T10:22:44.146Z,0.68
2022-11-09T10:25:43.714Z,0.88
2022-11-09T10:28:15.075Z,0.35
2022-11-09T10:30:43.839Z,0.50
2022-11-09T10:33:20.737Z,1.08
2022-11-09T10:36:05.242Z,0.95
2022-11-09T10:38:46.114Z,0.65
2022-11-09T10:41:29.040Z,0.68
2022-11-09T10:43:56.844Z,0.80
2022-11-09T10:46:24.789Z,0.57
2022-11-09T10:48:55.564Z,0.77
2022-11-09T10:51:39.505Z,0.57
2022-11-09T10:54:17.297Z,0.93
2022-11-09T10:57:06.641Z,1.05
2022-11-09T10:59:49.576Z,0.75
2022-11-09T11:02:45.118Z,0.60
2022-11-09T11:05:32.693Z,0.82
2022-11-09T11:08:26.098Z,0.60
2022-11-09T11:11:32.676Z,0.75
2022-11-09T11:14:21.665Z,0.52
2022-11-09T11:16:53.557Z,0.80
2022-11-09T11:19:35.856Z,0.57
2022-11-09T11:22:22.922Z,0.60
2022-11-09T11:24:59.024Z,0.70
2022-11-09T11:27:35.629Z,0.77
2022-11-09T11:30:12.177Z,0.75
2022-11-09T11:32:41.322Z,1.20
2022-11-09T11:35:18.070Z,0.93
2022-11-09T11:38:03.357Z,1.70
2022-11-09T11:40:39.458Z,1.73
2022-11-09T11:43:29.513Z,1.35
2022-11-09T11:46:16.107Z,1.92
2022-11-09T11:49:42.247Z,1.60
2022-11-09T11:52:20.154Z,2.03
2022-11-09T11:55:12.001Z,2.22
2022-11-09T11:57:57.853Z,2.50
2022-11-09T12:00:25.919Z,2.10
2022-11-09T12:03:35.046Z,1.80
2022-11-09T12:06:44.028Z,2.35
2022-11-09T12:09:36.214Z,2.05
2022-11-09T12:12:17.633Z,1.65
2022-11-09T12:15:06.895Z,1.60
2022-11-09T12:17:52.167Z,2.25
2022-11-09T12:20:33.361Z,1.88
2022-11-09T12:23:22.567Z,1.75
2022-11-09T12:26:04.471Z,2.10
2022-11-09T12:28:57.552Z,2.20
2022-11-09T12:31:45.954Z,1.95
2022-11-09T12:34:24.149Z,1.60
2022-11-09T12:37:00.305Z,2.30
2022-11-09T12:39:36.764Z,1.52
2022-11-09T12:42:11.887Z,2.15
2022-11-09T12:44:47.958Z,2.05
2022-11-09T12:47:22.997Z,2.00
2022-11-09T12:49:51.862Z,1.85
2022-11-09T12:52:28.792Z,1.65
2022-11-09T12:55:01.622Z,1.70
2022-11-09T12:57:33.175Z,1.77
2022-11-09T13:00:02.190Z,1.38
2022-11-09T13:02:34.375Z,2.10
2022-11-09T13:05:06.958Z,1.77
2022-11-09T13:07:50.424Z,2.33
2022-11-09T13:10:29.642Z,2.05
2022-11-09T13:13:06.890Z,2.22
2022-11-09T13:15:37.356Z,2.05
2022-11-09T13:18:24.640Z,1.92
2022-11-09T13:20:56.115Z,1.75
2022-11-09T13:23:55.356Z,2.15
2022-11-09T13:26:55.758Z,2.03
2022-11-09T13:29:27.673Z,2.80
2022-11-09T13:32:24.936Z,2.25
2022-11-09T13:34:55.297Z,1.75
2022-11-09T13:37:49.191Z,1.75
2022-11-09T13:40:46.840Z,1.20
2022-11-09T13:43:23.222Z,2.10
2022-11-09T13:45:56.430Z,2.00
2022-11-09T13:48:39.995Z,2.03
2022-11-09T13:51:13.573Z,2.08
2022-11-09T13:53:56.803Z,2.20
2022-11-09T13:56:36.923Z,1.60
2022-11-09T13:59:16.041Z,2.30
2022-11-09T14:01:51.655Z,1.35
2022-11-09T14:04:26.708Z,2.03
2022-11-09T14:07:05.021Z,1.92
2022-11-09T14:09:58.487Z,1.90
2022-11-09T14:12:41.946Z,2.03
2022-11-09T14:15:28.880Z,1.90
2022-11-09T14:18:13.826Z,1.98
2022-11-09T14:23:19.100Z,1.30
2022-11-09T14:25:48.979Z,1.95
2022-11-09T14:28:24.834Z,2.03
2022-11-09T14:30:52.571Z,1.98
2022-11-09T14:33:25.936Z,1.92
2022-11-09T14:35:56.436Z,1.98
2022-11-09T14:38:29.537Z,1.80
2022-11-09T14:40:57.623Z,1.80
2022-11-09T14:43:32.562Z,2.17
2022-11-09T14:46:03.533Z,1.63
2022-11-09T14:48:36.136Z,1.98
2022-11-09T14:51:11.945Z,1.73
2022-11-09T14:53:44.153Z,1.90
2022-11-09T14:56:17.050Z,1.38
2022-11-09T14:58:49.774Z,1.88
2022-11-09T15:01:24.787Z,2.35
2022-11-09T15:04:12.333Z,1.80
2022-11-09T15:06:49.307Z,1.65
2022-11-09T15:09:21.520Z,1.83
2022-11-09T15:11:52.569Z,2.17
2022-11-09T15:14:29.707Z,2.50
2022-11-09T15:17:15.706Z,1.95
2022-11-09T15:19:53.009Z,1.80
2022-11-09T15:22:50.420Z,2.30
2022-11-09T15:25:23.225Z,2.08
2022-11-09T15:28:02.221Z,2.65
2022-11-09T15:30:36.483Z,1.95
2022-11-09T15:33:24.073Z,1.95
2022-11-09T15:35:55.233Z,1.77
2022-11-09T15:38:37.373Z,1.80
2022-11-09T15:41:13.198Z,1.95
2022-11-09T15:43:41.549Z,2.20
2022-11-09T15:46:14.896Z,1.98
2022-11-09T15:48:46.105Z,2.30
2022-11-09T15:51:15.217Z,1.83
2022-11-09T15:53:43.905Z,1.60
2022-11-09T15:56:18.343Z,2.10
2022-11-09T15:58:49.086Z,1.58
2022-11-09T16:01:18.248Z,2.58
2022-11-09T16:03:46.044Z,1.98
2022-11-09T16:06:18.975Z,2.17
2022-11-09T16:08:48.824Z,2.35
2022-11-09T16:11:17.162Z,1.88
2022-11-09T16:13:45.794Z,2.35
2022-11-09T16:16:15.977Z,1.83
2022-11-09T16:18:45.076Z,2.33
2022-11-09T16:21:15.458Z,1.55
2022-11-09T16:23:43.765Z,1.90
2022-11-09T16:26:14.980Z,1.63
2022-11-09T16:28:44.103Z,1.50
2022-11-09T16:31:13.693Z,1.67
2022-11-09T16:33:42.194Z,1.45
2022-11-09T16:36:18.211Z,1.88
2022-11-09T16:38:51.381Z,1.40
2022-11-09T16:41:19.614Z,1.33
2022-11-09T16:43:52.609Z,1.80
2022-11-09T16:46:26.215Z,1.90
2022-11-09T16:48:55.679Z,1.10
2022-11-09T16:51:24.838Z,1.55
2022-11-09T16:53:52.531Z,1.52
2022-11-09T16:56:20.277Z,2.22
2022-11-09T16:58:48.323Z,1.10
2022-11-09T17:01:19.237Z,1.70
2022-11-09T17:03:50.839Z,1.70
2022-11-09T17:06:18.632Z,2.22
2022-11-09T17:08:47.688Z,1.95
2022-11-09T17:11:17.372Z,1.95
2022-11-09T17:13:45.133Z,1.67
2022-11-09T17:16:16.683Z,2.20
2022-11-09T17:18:44.408Z,2.10
2022-11-09T17:21:14.883Z,2.20
2022-11-09T17:23:44.164Z,2.10
2022-11-09T17:26:13.374Z,2.30
2022-11-09T17:28:43.893Z,1.52
2022-11-09T17:31:14.582Z,3.75
2022-11-09T17:33:42.346Z,3.67
2022-11-09T17:36:12.443Z,2.90
2022-11-09T17:38:41.343Z,1.80
2022-11-09T17:41:14.632Z,2.03
2022-11-09T17:43:45.047Z,2.70
2022-11-09T17:46:16.936Z,2.05
2022-11-09T17:48:47.875Z,2.47
2022-11-09T17:51:18.861Z,2.20
2022-11-09T17:53:47.289Z,2.13
2022-11-09T17:56:16.375Z,1.70
2022-11-09T17:58:47.080Z,1.38
2022-11-09T18:01:19.822Z,1.88
2022-11-09T18:03:48.031Z,2.10
2022-11-09T18:06:19.144Z,1.95
2022-11-09T18:09:03.591Z,4.80
2022-11-09T18:11:36.828Z,19.38
2022-11-09T18:14:05.040Z,10.43
2022-11-09T18:16:33.755Z,3.58
2022-11-09T18:19:02.593Z,2.30
2022-11-09T18:21:31.623Z,2.00
2022-11-09T18:23:59.402Z,2.13
2022-11-09T18:26:27.205Z,2.13
2022-11-09T18:28:58.544Z,2.65
2022-11-09T18:31:26.288Z,2.03
2022-11-09T18:33:54.362Z,2.80
2022-11-09T18:36:23.385Z,1.95
2022-11-09T18:38:52.107Z,2.90
2022-11-09T18:41:23.980Z,2.40
2022-11-09T18:43:53.780Z,2.88
2022-11-09T18:46:23.250Z,2.50
2022-11-09T18:48:52.449Z,2.75
2022-11-09T18:51:20.778Z,3.17
2022-11-09T18:53:49.748Z,2.40
2022-11-09T18:56:22.641Z,2.83
2022-11-09T18:58:53.135Z,2.50
2022-11-09T19:01:23.943Z,2.72
2022-11-09T19:03:57.747Z,2.72
2022-11-09T19:06:27.000Z,3.05
2022-11-09T19:09:12.624Z,2.60
2022-11-09T19:11:40.422Z,2.63
2022-11-09T19:14:08.288Z,2.63
2022-11-09T19:16:38.103Z,2.10
2022-11-09T19:19:05.853Z,2.60
2022-11-09T19:21:41.462Z,2.50
2022-11-09T19:24:14.984Z,2.65
2022-11-09T19:26:43.020Z,2.65
2022-11-09T19:29:13.020Z,3.05
2022-11-09T19:31:44.149Z,2.97
2022-11-09T19:34:13.705Z,2.90
2022-11-09T19:36:43.058Z,2.83
2022-11-09T19:39:11.276Z,2.50
2022-11-09T19:41:39.169Z,2.75
2022-11-09T19:44:07.910Z,3.30
2022-11-09T19:46:37.701Z,2.83
2022-11-09T19:49:07.215Z,2.42
2022-11-09T19:51:35.584Z,2.45
2022-11-09T19:54:06.684Z,2.50
2022-11-09T19:56:36.853Z,2.22
2022-11-09T19:59:05.749Z,2.20
2022-11-09T20:01:34.206Z,2.33
2022-11-09T20:04:06.354Z,2.58
2022-11-09T20:06:38.636Z,2.03
2022-11-09T20:09:06.945Z,2.17
2022-11-09T20:11:52.207Z,2.25
2022-11-09T20:14:21.057Z,2.20
2022-11-09T20:16:49.105Z,1.65
2022-11-09T20:19:17.195Z,2.50
2022-11-09T20:21:46.316Z,2.10
2022-11-09T20:24:15.075Z,1.85
2022-11-09T20:26:43.885Z,2.17
2022-11-09T20:29:11.728Z,1.67
2022-11-09T20:31:39.917Z,2.00
2022-11-09T20:34:08.068Z,2.17
2022-11-09T20:36:35.830Z,2.28
2022-11-09T20:39:05.425Z,2.00
2022-11-09T20:41:34.016Z,2.55
2022-11-09T20:44:01.734Z,2.22
2022-11-09T20:46:35.472Z,2.25
2022-11-09T20:51:32.526Z,2.33
2022-11-09T20:54:05.670Z,2.13
2022-11-09T20:56:38.309Z,2.50
2022-11-09T20:59:06.179Z,1.95
2022-11-09T21:01:34.420Z,1.98
2022-11-09T21:04:02.324Z,1.73
2022-11-09T21:06:31.068Z,2.15
2022-11-09T21:09:00.816Z,1.88
2022-11-09T21:11:35.410Z,1.98
2022-11-09T21:16:32.528Z,1.95
2022-11-09T21:19:00.818Z,1.63
2022-11-09T21:21:33.431Z,1.88
2022-11-09T21:24:21.454Z,2.00
2022-11-09T21:27:06.881Z,2.03
2022-11-09T21:29:53.948Z,1.30
2022-11-09T21:32:23.772Z,2.40
2022-11-09T21:34:52.272Z,1.83
2022-11-09T21:37:19.992Z,2.10
2022-11-09T21:39:47.702Z,1.80
2022-11-09T21:42:16.000Z,2.20
2022-11-09T21:44:45.515Z,1.70
2022-11-09T21:47:13.563Z,1.80
2022-11-09T21:49:41.526Z,1.80
2022-11-09T21:52:09.426Z,1.88
2022-11-09T21:54:37.128Z,2.53
2022-11-09T21:57:04.940Z,2.33
2022-11-09T21:59:32.773Z,2.35
2022-11-09T22:02:01.835Z,2.42
2022-11-09T22:04:29.543Z,1.83
2022-11-09T22:06:57.323Z,2.45
2022-11-09T22:09:25.248Z,1.70
2022-11-09T22:12:10.608Z,1.42
2022-11-09T22:14:55.997Z,1.85
2022-11-09T22:17:25.053Z,1.83
2022-11-09T22:20:11.172Z,1.85
2022-11-09T22:22:39.087Z,1.63
2022-11-09T22:25:08.612Z,1.80
2022-11-09T22:27:36.343Z,2.22
2022-11-09T22:30:04.725Z,2.28
2022-11-09T22:32:33.850Z,2.00
2022-11-09T22:35:01.566Z,1.83
2022-11-09T22:37:29.328Z,1.95
2022-11-09T22:39:57.110Z,1.85
2022-11-09T22:42:24.839Z,1.92
2022-11-09T22:44:52.624Z,1.70
2022-11-09T22:47:20.394Z,2.10
2022-11-09T22:49:49.465Z,1.63
2022-11-09T22:52:18.193Z,1.85
2022-11-09T22:54:45.891Z,2.20
2022-11-09T22:57:13.602Z,1.75
2022-11-09T22:59:41.560Z,2.13
2022-11-09T23:02:09.312Z,1.38
2022-11-09T23:04:37.090Z,2.30
2022-11-09T23:07:06.234Z,1.52
2022-11-09T23:09:33.998Z,1.63
2022-11-09T23:12:01.701Z,2.03
2022-11-09T23:14:46.930Z,1.60
2022-11-09T23:17:28.590Z,1.75
2022-11-09T23:19:56.723Z,1.88
2022-11-09T23:22:26.131Z,2.03
2022-11-09T23:25:11.473Z,2.20
2022-11-09T23:27:39.170Z,2.10
2022-11-09T23:30:08.164Z,2.40
2022-11-09T23:32:35.924Z,2.05
2022-11-09T23:35:03.694Z,2.55
2022-11-09T23:37:32.735Z,2.10
2022-11-09T23:40:00.501Z,2.45
2022-11-09T23:42:28.215Z,2.10
2022-11-09T23:44:56.055Z,1.92
2022-11-09T23:47:23.855Z,2.63
2022-11-09T23:49:51.594Z,1.88
2022-11-09T23:52:19.498Z,1.55
2022-11-09T23:54:48.514Z,1.55
2022-11-09T23:57:16.282Z,1.98
2022-11-09T23:59:44.026Z,2.17
